Time;durP1;ratioP1;P1;durP2;ratioP2;P2;SDS_P1;SDS_P2;PMS_P1;PMS_P2;Temp;Humidity;BMP_temperature;BMP_pressure;BME280_temperature;BME280_humidity;BME280_pressure;Samples;Min_cycle;Max_cycle;Signal;HPM_P1;HPM_P2
2021/09/11 00:00:05;;;;;;;3.20;2.40;;;20.30;99.90;;;;;;2082295;28;20049;-70
2021/09/11 00:01:06;;;;;;;4.97;3.40;;;20.30;99.90;;;;;;2082084;28;20037;-70
2021/09/11 00:02:06;;;;;;;6.25;3.70;;;20.30;99.90;;;;;;2085697;28;20029;-70
2021/09/11 00:03:07;;;;;;;2.92;2.63;;;20.30;99.90;;;;;;2090241;28;20100;-70
2021/09/11 00:04:07;;;;;;;4.07;3.38;;;20.30;99.90;;;;;;2090406;28;20424;-70
2021/09/11 00:05:08;;;;;;;3.85;3.00;;;20.30;99.90;;;;;;2089847;28;20033;-70
2021/09/11 00:06:09;;;;;;;3.00;2.70;;;20.30;99.90;;;;;;2089980;28;20115;-70
2021/09/11 00:07:09;;;;;;;3.28;2.97;;;20.30;99.90;;;;;;2090655;28;20025;-70
2021/09/11 00:08:10;;;;;;;4.47;3.25;;;20.30;99.90;;;;;;2090643;28;20346;-70
2021/09/11 00:09:10;;;;;;;6.60;2.97;;;20.20;99.90;;;;;;2090722;28;20027;-70
2021/09/11 00:10:12;;;;;;;6.47;2.92;;;20.20;99.90;;;;;;2090549;28;20036;-70
2021/09/11 00:11:12;;;;;;;3.47;3.17;;;20.20;99.90;;;;;;2090387;28;20031;-70
2021/09/11 00:12:13;;;;;;;4.22;3.33;;;20.20;99.90;;;;;;2082035;28;20029;-70
2021/09/11 00:13:13;;;;;;;2.65;2.45;;;20.20;99.90;;;;;;2082290;28;20064;-70
2021/09/11 00:14:14;;;;;;;4.47;2.92;;;20.20;99.90;;;;;;2082097;28;20021;-70
2021/09/11 00:15:17;;;;;;;4.72;3.40;;;20.20;99.90;;;;;;2082105;28;20520;-70
2021/09/11 00:16:18;;;;;;;3.60;3.30;;;20.20;99.90;;;;;;2083574;28;20021;-70
2021/09/11 00:17:19;;;;;;;3.17;2.88;;;20.30;99.90;;;;;;2082474;28;20057;-70
2021/09/11 00:18:19;;;;;;;6.25;3.30;;;20.30;99.90;;;;;;2082214;28;20049;-70
2021/09/11 00:19:20;;;;;;;4.78;3.53;;;20.30;99.90;;;;;;2081423;28;20706;-70
2021/09/11 00:20:20;;;;;;;3.53;3.22;;;20.30;99.90;;;;;;2081799;28;20096;-70
2021/09/11 00:21:21;;;;;;;5.93;3.78;;;20.30;99.90;;;;;;2082260;28;20084;-70
2021/09/11 00:22:22;;;;;;;4.88;3.13;;;20.30;99.90;;;;;;2082327;28;20020;-70
2021/09/11 00:23:22;;;;;;;3.92;3.20;;;20.30;99.90;;;;;;2081984;28;20017;-70
2021/09/11 00:24:23;;;;;;;4.25;3.20;;;20.30;99.90;;;;;;2082491;28;20401;-70
2021/09/11 00:25:24;;;;;;;3.53;3.20;;;20.30;99.90;;;;;;2082842;28;20018;-70
2021/09/11 00:26:24;;;;;;;6.97;3.70;;;20.30;99.90;;;;;;2083193;28;20554;-70
2021/09/11 00:27:25;;;;;;;3.70;3.40;;;20.30;99.90;;;;;;2082087;28;20026;-70
2021/09/11 00:28:26;;;;;;;3.50;3.15;;;20.30;99.90;;;;;;2082411;28;20021;-70
2021/09/11 00:29:27;;;;;;;5.40;3.25;;;20.30;99.90;;;;;;2082107;28;20041;-71
2021/09/11 00:30:27;;;;;;;4.40;3.47;;;20.30;99.90;;;;;;2082468;28;20029;-70
2021/09/11 00:31:28;;;;;;;3.90;3.50;;;20.20;99.90;;;;;;2082157;28;20672;-70
2021/09/11 00:32:28;;;;;;;7.18;3.80;;;20.30;99.90;;;;;;2095576;28;20353;-70
2021/09/11 00:33:29;;;;;;;7.32;3.60;;;20.20;99.90;;;;;;2095215;28;20058;-70
2021/09/11 00:34:30;;;;;;;6.25;3.33;;;20.30;99.90;;;;;;2090659;28;20405;-70
2021/09/11 00:35:30;;;;;;;6.68;3.30;;;20.20;99.90;;;;;;2090057;28;20033;-70
2021/09/11 00:36:31;;;;;;;5.45;3.50;;;20.30;99.90;;;;;;2090217;28;20021;-70
2021/09/11 00:37:31;;;;;;;4.78;3.38;;;20.30;99.90;;;;;;2090283;28;20052;-70
2021/09/11 00:38:32;;;;;;;5.03;3.58;;;20.30;99.90;;;;;;2090660;28;20033;-70
2021/09/11 00:39:32;;;;;;;4.30;3.58;;;20.30;99.90;;;;;;2090484;28;20033;-70
2021/09/11 00:40:33;;;;;;;3.45;3.15;;;20.30;99.90;;;;;;2090533;28;20087;-70
2021/09/11 00:41:34;;;;;;;3.55;3.25;;;20.30;99.90;;;;;;2082065;28;20491;-70
2021/09/11 00:42:34;;;;;;;5.18;3.90;;;20.30;99.90;;;;;;2090950;28;20060;-70
2021/09/11 00:43:44;;;;;;;5.20;3.22;;;20.30;99.90;;;;;;2097270;28;20025;-70
2021/09/11 00:44:45;;;;;;;3.85;3.33;;;20.30;99.90;;;;;;2082537;28;20060;-70
2021/09/11 00:45:45;;;;;;;6.57;3.72;;;20.20;99.90;;;;;;2082072;28;20029;-70
2021/09/11 00:46:46;;;;;;;4.18;3.40;;;20.30;99.90;;;;;;2082261;28;20064;-70
2021/09/11 00:47:47;;;;;;;5.07;3.63;;;20.20;99.90;;;;;;2082004;28;20129;-70
2021/09/11 00:48:47;;;;;;;6.93;3.72;;;20.30;99.90;;;;;;2082339;28;20100;-70
2021/09/11 00:49:48;;;;;;;5.22;3.80;;;20.30;99.90;;;;;;2081085;28;20022;-70
2021/09/11 00:50:48;;;;;;;3.95;3.55;;;20.30;99.90;;;;;;2082354;28;20057;-70
2021/09/11 00:51:49;;;;;;;5.63;3.25;;;20.30;99.90;;;;;;2081813;28;20087;-70
2021/09/11 00:52:50;;;;;;;9.02;3.75;;;20.30;99.90;;;;;;2081335;28;20812;-70
2021/09/11 00:53:51;;;;;;;4.15;3.42;;;20.30;99.90;;;;;;2081682;28;20072;-70
2021/09/11 00:54:52;;;;;;;8.32;4.10;;;20.30;99.90;;;;;;2087642;28;20017;-70
2021/09/11 00:55:52;;;;;;;5.32;3.92;;;20.30;99.90;;;;;;2083221;28;20446;-70
2021/09/11 00:56:55;;;;;;;5.80;3.90;;;20.20;99.90;;;;;;2080615;28;20053;-70
2021/09/11 00:57:56;;;;;;;4.65;3.92;;;20.30;99.90;;;;;;2080772;28;20045;-70
2021/09/11 00:58:58;;;;;;;7.63;4.10;;;20.30;99.90;;;;;;2080968;28;20025;-70
2021/09/11 00:59:59;;;;;;;4.70;3.97;;;20.20;99.90;;;;;;2080765;28;20025;-70
2021/09/11 01:00:59;;;;;;;5.80;4.13;;;20.30;99.90;;;;;;2080961;28;20096;-70
2021/09/11 01:02:00;;;;;;;6.13;4.00;;;20.20;99.90;;;;;;2080697;28;20032;-70
2021/09/11 01:03:01;;;;;;;3.95;3.55;;;20.30;99.90;;;;;;2080620;28;20048;-70
2021/09/11 01:04:01;;;;;;;3.97;3.67;;;20.30;99.90;;;;;;2079978;28;20477;-70
2021/09/11 01:05:08;;;;;;;5.97;3.67;;;20.30;99.90;;;;;;2080140;28;20018;-70
2021/09/11 01:06:10;;;;;;;7.22;4.00;;;20.30;99.90;;;;;;2080856;28;20478;-70
2021/09/11 01:07:10;;;;;;;3.97;3.53;;;20.20;99.90;;;;;;2080979;28;20029;-70
2021/09/11 01:08:11;;;;;;;6.82;3.92;;;20.30;99.90;;;;;;2080677;28;20018;-70
2021/09/11 01:09:13;;;;;;;4.07;3.67;;;20.30;99.90;;;;;;2083226;28;20100;-70
2021/09/11 01:10:15;;;;;;;6.68;4.18;;;20.30;99.90;;;;;;2085452;28;20017;-70
2021/09/11 01:11:15;;;;;;;5.63;4.20;;;20.30;99.90;;;;;;2080706;28;20068;-70
2021/09/11 01:12:17;;;;;;;5.25;4.28;;;20.30;99.90;;;;;;2080528;28;20021;-70
2021/09/11 01:13:17;;;;;;;5.47;3.72;;;20.30;99.90;;;;;;2080323;28;20056;-70
2021/09/11 01:14:18;;;;;;;5.63;4.10;;;20.30;99.90;;;;;;2081109;28;20124;-70
2021/09/11 01:15:30;;;;;;;6.25;4.20;;;20.30;99.90;;;;;;2080160;28;20030;-70
2021/09/11 01:16:33;;;;;;;5.18;4.25;;;20.30;99.90;;;;;;2082085;28;20052;-70
2021/09/11 01:17:34;;;;;;;9.13;4.00;;;20.30;99.90;;;;;;2080694;28;20075;-70
2021/09/11 01:18:35;;;;;;;5.03;4.00;;;20.30;99.90;;;;;;2080647;28;20083;-70
2021/09/11 01:19:38;;;;;;;5.40;4.43;;;20.30;99.90;;;;;;2080742;28;20414;-70
2021/09/11 01:20:39;;;;;;;8.35;4.15;;;20.30;99.90;;;;;;2080785;28;20021;-70
2021/09/11 01:21:40;;;;;;;4.60;3.97;;;20.30;99.90;;;;;;2080082;28;20065;-70
2021/09/11 01:22:41;;;;;;;7.55;4.20;;;20.30;99.90;;;;;;2080581;28;20031;-70
2021/09/11 01:23:41;;;;;;;5.38;3.78;;;20.30;99.90;;;;;;2086166;28;20037;-70
2021/09/11 01:24:59;;;;;;;4.63;3.90;;;20.30;99.90;;;;;;2085789;28;20067;-70
2021/09/11 01:26:00;;;;;;;7.70;4.00;;;20.40;99.90;;;;;;2080710;28;20033;-70
2021/09/11 01:27:00;;;;;;;6.22;4.07;;;20.30;99.90;;;;;;2080453;28;20032;-70
2021/09/11 01:28:01;;;;;;;5.88;4.53;;;20.30;99.90;;;;;;2080817;28;20173;-70
2021/09/11 01:29:02;;;;;;;8.32;4.22;;;20.40;99.90;;;;;;2080572;28;20377;-70
2021/09/11 01:30:08;;;;;;;4.95;4.43;;;20.40;99.90;;;;;;2080726;28;20033;-70
2021/09/11 01:31:09;;;;;;;4.40;4.00;;;20.40;99.90;;;;;;2080600;28;20152;-70
2021/09/11 01:32:15;;;;;;;4.93;4.40;;;20.40;99.90;;;;;;2081766;28;20075;-70
2021/09/11 01:33:16;;;;;;;6.18;4.38;;;20.40;99.90;;;;;;2080055;28;20100;-70
2021/09/11 01:34:16;;;;;;;5.05;4.40;;;20.40;99.90;;;;;;2081613;28;20024;-70
2021/09/11 01:35:18;;;;;;;5.75;4.65;;;20.40;99.90;;;;;;2083597;28;20040;-70
2021/09/11 01:36:19;;;;;;;6.38;4.28;;;20.40;99.90;;;;;;2087485;28;20021;-70
2021/09/11 01:37:19;;;;;;;5.90;4.63;;;20.40;99.90;;;;;;2088409;28;20060;-70
2021/09/11 01:38:20;;;;;;;5.78;4.68;;;20.40;99.90;;;;;;2086273;28;20029;-70
2021/09/11 01:39:21;;;;;;;5.60;4.82;;;20.50;99.90;;;;;;2087152;28;20120;-70
2021/09/11 01:40:22;;;;;;;6.07;4.70;;;20.50;99.90;;;;;;2082955;28;20029;-70
2021/09/11 01:41:23;;;;;;;5.50;4.60;;;20.50;99.90;;;;;;2082188;28;20474;-70
2021/09/11 01:42:26;;;;;;;7.30;4.45;;;20.50;99.90;;;;;;2080661;28;20464;-70
2021/09/11 01:43:32;;;;;;;5.35;4.60;;;20.50;99.90;;;;;;2081266;28;20084;-70
2021/09/11 01:44:33;;;;;;;5.72;4.72;;;20.50;99.90;;;;;;2083154;28;20562;-70
2021/09/11 01:45:33;;;;;;;7.40;4.68;;;20.50;99.90;;;;;;2081163;28;20420;-70
2021/09/11 01:46:34;;;;;;;5.20;4.70;;;20.50;99.90;;;;;;2088449;28;20075;-70
2021/09/11 01:47:35;;;;;;;6.35;4.70;;;20.50;99.90;;;;;;2084648;28;20029;-70
2021/09/11 01:48:36;;;;;;;9.57;4.90;;;20.50;99.90;;;;;;2084546;28;20955;-70
2021/09/11 01:49:36;;;;;;;6.05;4.90;;;20.60;99.90;;;;;;2079974;28;20374;-70
2021/09/11 01:50:37;;;;;;;5.78;5.20;;;20.50;99.90;;;;;;2085082;28;20044;-70
2021/09/11 01:51:45;;;;;;;9.25;5.40;;;20.50;99.90;;;;;;2080178;28;20030;-70
2021/09/11 01:52:47;;;;;;;6.35;4.97;;;20.50;99.90;;;;;;2080206;28;20025;-70
2021/09/11 01:53:47;;;;;;;6.85;6.13;;;20.50;99.90;;;;;;2080431;28;20030;-70
2021/09/11 01:54:48;;;;;;;6.28;5.55;;;20.50;99.90;;;;;;2086647;28;20103;-70
2021/09/11 01:55:49;;;;;;;6.85;6.05;;;20.50;99.90;;;;;;2083643;28;20040;-70
2021/09/11 01:56:50;;;;;;;9.20;6.28;;;20.50;99.90;;;;;;2080617;28;20034;-70
2021/09/11 01:57:50;;;;;;;13.32;7.65;;;20.50;99.90;;;;;;2080028;28;20030;-70
2021/09/11 01:58:51;;;;;;;8.05;7.25;;;20.60;99.90;;;;;;2080291;28;20025;-70
2021/09/11 01:59:51;;;;;;;8.48;7.57;;;20.50;99.90;;;;;;2080414;28;20097;-70
2021/09/11 02:00:52;;;;;;;9.10;8.07;;;20.60;99.90;;;;;;2080455;28;20025;-70
2021/09/11 02:01:52;;;;;;;10.13;7.88;;;20.50;99.90;;;;;;2080125;28;20085;-70
2021/09/11 02:02:53;;;;;;;10.00;7.80;;;20.50;99.90;;;;;;2083571;28;20627;-70
2021/09/11 02:03:53;;;;;;;10.48;8.60;;;20.50;99.90;;;;;;2084030;28;20369;-70
2021/09/11 02:04:54;;;;;;;12.63;7.85;;;20.50;99.90;;;;;;2080286;28;20017;-70
2021/09/11 02:05:55;;;;;;;10.25;7.85;;;20.50;99.90;;;;;;2080348;28;20026;-70
2021/09/11 02:06:55;;;;;;;10.82;8.13;;;20.50;99.90;;;;;;2080298;28;20026;-70
2021/09/11 02:07:56;;;;;;;7.95;7.18;;;20.50;99.90;;;;;;2080106;28;20067;-70
2021/09/11 02:08:56;;;;;;;8.68;7.88;;;20.60;99.90;;;;;;2080167;28;20026;-70
2021/09/11 02:09:57;;;;;;;11.45;8.38;;;20.50;99.90;;;;;;2080485;28;20061;-70
2021/09/11 02:10:57;;;;;;;9.63;8.45;;;20.60;99.90;;;;;;2080211;28;20416;-70
2021/09/11 02:11:59;;;;;;;10.95;8.77;;;20.60;99.90;;;;;;2080109;28;20092;-70
2021/09/11 02:13:00;;;;;;;9.25;8.32;;;20.60;99.90;;;;;;2079964;28;20030;-70
2021/09/11 02:14:00;;;;;;;13.13;9.20;;;20.60;99.90;;;;;;2080532;28;20512;-70
2021/09/11 02:15:02;;;;;;;11.98;10.32;;;20.60;99.90;;;;;;2079498;28;20025;-70
2021/09/11 02:16:02;;;;;;;12.30;9.10;;;20.60;99.90;;;;;;2079651;28;20026;-70
2021/09/11 02:17:04;;;;;;;10.88;9.73;;;20.60;99.90;;;;;;2086424;28;20025;-70
2021/09/11 02:18:04;;;;;;;11.27;10.05;;;20.60;99.90;;;;;;2087635;28;20051;-70
2021/09/11 02:19:05;;;;;;;12.38;10.55;;;20.60;99.90;;;;;;2080391;28;20045;-70
2021/09/11 02:20:07;;;;;;;12.73;11.45;;;20.60;99.90;;;;;;2083664;28;20032;-70
2021/09/11 02:21:07;;;;;;;15.25;13.60;;;20.70;99.90;;;;;;2088411;28;20115;-70
2021/09/11 02:22:11;;;;;;;14.70;13.15;;;20.70;99.90;;;;;;2080122;28;20104;-70
2021/09/11 02:23:12;;;;;;;15.23;13.68;;;20.70;99.90;;;;;;2079889;28;20022;-70
2021/09/11 02:24:12;;;;;;;15.60;13.07;;;20.70;99.90;;;;;;2080251;28;20745;-70
2021/09/11 02:25:13;;;;;;;15.90;14.32;;;20.70;99.90;;;;;;2080116;28;20074;-70
2021/09/11 02:26:14;;;;;;;20.05;15.38;;;20.70;99.90;;;;;;2079572;28;20432;-70
2021/09/11 02:27:14;;;;;;;16.52;14.93;;;20.70;99.90;;;;;;2079416;28;20026;-70
2021/09/11 02:28:15;;;;;;;17.63;15.73;;;20.70;99.90;;;;;;2080158;28;20030;-70
2021/09/11 02:29:15;;;;;;;16.52;14.43;;;20.70;99.90;;;;;;2079846;28;20108;-70
2021/09/11 02:30:16;;;;;;;17.80;15.75;;;20.70;99.90;;;;;;2080217;28;20029;-70
2021/09/11 02:31:16;;;;;;;18.23;15.20;;;20.70;99.90;;;;;;2081676;28;20441;-70
2021/09/11 02:32:17;;;;;;;17.20;15.50;;;20.70;99.90;;;;;;2079473;28;20089;-70
2021/09/11 02:33:18;;;;;;;18.50;16.05;;;20.70;99.90;;;;;;2078928;28;20037;-70
2021/09/11 02:34:18;;;;;;;18.40;16.13;;;20.70;99.90;;;;;;2081148;28;20083;-70
2021/09/11 02:35:19;;;;;;;18.20;16.35;;;20.70;99.90;;;;;;2088292;28;20033;-70
2021/09/11 02:36:19;;;;;;;17.70;15.90;;;20.70;99.90;;;;;;2088418;28;20377;-70
2021/09/11 02:37:20;;;;;;;17.92;16.17;;;20.70;99.90;;;;;;2088260;28;20215;-70
2021/09/11 02:38:20;;;;;;;19.55;17.40;;;20.70;99.90;;;;;;2088070;28;20035;-70
2021/09/11 02:39:21;;;;;;;17.63;15.82;;;20.70;99.90;;;;;;2088392;28;20477;-70
2021/09/11 02:40:22;;;;;;;25.35;17.30;;;20.70;99.90;;;;;;2088499;28;20085;-70
2021/09/11 02:41:22;;;;;;;18.63;16.73;;;20.70;99.90;;;;;;2081700;28;20021;-70
2021/09/11 02:42:23;;;;;;;19.00;17.13;;;20.70;99.90;;;;;;2080886;28;20025;-70
2021/09/11 02:43:23;;;;;;;19.38;17.40;;;20.70;99.90;;;;;;2088404;28;20398;-70
2021/09/11 02:44:24;;;;;;;22.60;19.67;;;20.70;99.90;;;;;;2083959;28;20021;-70
2021/09/11 02:45:25;;;;;;;20.98;18.77;;;20.70;99.90;;;;;;2086176;28;20023;-70
2021/09/11 02:46:25;;;;;;;20.52;18.42;;;20.70;99.90;;;;;;2080241;28;20249;-70
2021/09/11 02:47:26;;;;;;;21.35;19.10;;;20.70;99.90;;;;;;2080108;28;20029;-70
2021/09/11 02:48:26;;;;;;;21.38;18.20;;;20.70;99.90;;;;;;2079952;28;20040;-70
2021/09/11 02:49:27;;;;;;;21.10;19.05;;;20.70;99.90;;;;;;2079837;28;20032;-70
2021/09/11 02:50:27;;;;;;;21.02;19.02;;;20.70;99.90;;;;;;2079708;28;20454;-70
2021/09/11 02:51:28;;;;;;;23.85;20.40;;;20.70;99.90;;;;;;2079717;28;20029;-70
2021/09/11 02:52:29;;;;;;;24.90;19.92;;;20.70;99.90;;;;;;2079997;28;20037;-70
2021/09/11 02:53:29;;;;;;;21.45;19.02;;;20.70;99.90;;;;;;2079050;28;20033;-70
2021/09/11 02:54:30;;;;;;;19.83;17.98;;;20.80;99.90;;;;;;2084770;28;20024;-70
2021/09/11 02:55:30;;;;;;;21.20;19.00;;;20.80;99.90;;;;;;2086123;28;20453;-70
2021/09/11 02:56:31;;;;;;;20.73;18.52;;;20.80;99.90;;;;;;2079556;28;20029;-69
2021/09/11 02:57:32;;;;;;;20.75;18.65;;;20.80;99.90;;;;;;2079944;28;20473;-69
2021/09/11 02:58:32;;;;;;;22.48;20.00;;;20.80;99.90;;;;;;2080009;28;20021;-70
2021/09/11 02:59:33;;;;;;;20.70;18.67;;;20.80;99.90;;;;;;2086500;28;20060;-70
2021/09/11 03:00:33;;;;;;;20.10;18.10;;;20.80;99.90;;;;;;2084071;28;20462;-69
2021/09/11 03:01:34;;;;;;;20.35;18.50;;;20.80;99.90;;;;;;2079461;28;20409;-69
2021/09/11 03:02:35;;;;;;;19.73;17.70;;;20.80;99.90;;;;;;2079435;28;20048;-69
2021/09/11 03:03:37;;;;;;;20.02;18.02;;;20.80;99.90;;;;;;2080164;28;20028;-69
2021/09/11 03:04:37;;;;;;;20.98;18.77;;;20.80;99.90;;;;;;2079889;28;20018;-70
2021/09/11 03:05:38;;;;;;;19.85;17.83;;;20.80;99.90;;;;;;2079629;28;20032;-70
2021/09/11 03:06:38;;;;;;;20.27;18.15;;;20.80;99.90;;;;;;2079558;28;20017;-70
2021/09/11 03:07:39;;;;;;;20.15;18.15;;;20.80;99.90;;;;;;2079124;28;20025;-70
2021/09/11 03:08:39;;;;;;;19.77;17.77;;;20.80;99.90;;;;;;2078937;28;20063;-70
2021/09/11 03:09:40;;;;;;;20.60;18.55;;;20.80;99.90;;;;;;2080144;28;20389;-70
2021/09/11 03:10:40;;;;;;;19.90;17.98;;;20.80;99.90;;;;;;2079891;28;20022;-70
2021/09/11 03:11:41;;;;;;;20.77;18.67;;;20.80;99.90;;;;;;2079517;28;20033;-70
2021/09/11 03:12:41;;;;;;;22.20;19.20;;;20.80;99.90;;;;;;2078820;28;20060;-70
2021/09/11 03:13:42;;;;;;;20.02;18.13;;;20.80;99.90;;;;;;2081456;28;20497;-70
2021/09/11 03:14:43;;;;;;;19.17;17.13;;;20.80;99.90;;;;;;2079952;28;20040;-70
2021/09/11 03:15:44;;;;;;;20.50;18.45;;;20.80;99.90;;;;;;2079703;28;20076;-70
2021/09/11 03:16:44;;;;;;;18.13;16.33;;;20.80;99.90;;;;;;2081690;28;20440;-70
2021/09/11 03:17:45;;;;;;;19.10;17.25;;;20.80;99.90;;;;;;2079700;28;20025;-70
2021/09/11 03:18:45;;;;;;;20.33;18.27;;;20.80;99.90;;;;;;2079787;28;20120;-70
2021/09/11 03:19:46;;;;;;;21.05;18.90;;;20.80;99.90;;;;;;2079504;28;20045;-70
2021/09/11 03:20:47;;;;;;;20.92;18.92;;;20.80;99.90;;;;;;2080022;28;20520;-70
2021/09/11 03:21:47;;;;;;;21.13;19.05;;;20.80;99.90;;;;;;2079280;28;20057;-70
2021/09/11 03:22:48;;;;;;;21.50;19.40;;;20.80;99.90;;;;;;2079332;28;20069;-69
2021/09/11 03:23:48;;;;;;;21.58;19.48;;;20.80;99.90;;;;;;2079890;28;20068;-69
2021/09/11 03:24:49;;;;;;;21.33;19.23;;;20.80;99.90;;;;;;2079918;28;20493;-69
2021/09/11 03:25:50;;;;;;;22.67;20.45;;;20.80;99.90;;;;;;2079455;28;20033;-69
2021/09/11 03:26:50;;;;;;;20.83;18.95;;;20.80;99.90;;;;;;2079496;28;20059;-70
2021/09/11 03:27:51;;;;;;;21.10;19.08;;;20.80;99.90;;;;;;2085928;28;20124;-70
2021/09/11 03:28:51;;;;;;;21.02;19.13;;;20.80;99.90;;;;;;2079847;28;20024;-70
2021/09/11 03:29:52;;;;;;;21.88;19.75;;;20.80;99.90;;;;;;2079710;28;20370;-70
2021/09/11 03:30:52;;;;;;;21.70;19.58;;;20.80;99.90;;;;;;2079994;28;20072;-70
2021/09/11 03:31:53;;;;;;;18.58;16.85;;;20.80;99.90;;;;;;2079405;28;20104;-70
2021/09/11 03:32:53;;;;;;;20.80;18.75;;;20.80;99.90;;;;;;2079570;28;20029;-70
2021/09/11 03:33:54;;;;;;;21.55;19.45;;;20.70;99.90;;;;;;2079822;28;20029;-70
2021/09/11 03:34:55;;;;;;;20.48;18.50;;;20.70;99.90;;;;;;2084649;28;20044;-70
2021/09/11 03:35:55;;;;;;;20.48;18.48;;;20.70;99.90;;;;;;2080051;28;20075;-70
2021/09/11 03:36:56;;;;;;;22.00;19.90;;;20.70;99.90;;;;;;2081768;28;20072;-70
2021/09/11 03:37:57;;;;;;;21.75;19.52;;;20.70;99.90;;;;;;2085215;28;20104;-70
2021/09/11 03:38:57;;;;;;;23.58;19.52;;;20.70;99.90;;;;;;2088025;28;20032;-70
2021/09/11 03:39:58;;;;;;;21.73;19.73;;;20.70;99.90;;;;;;2079550;28;20095;-70
2021/09/11 03:40:59;;;;;;;24.50;20.67;;;20.70;99.90;;;;;;2083940;28;20056;-69
2021/09/11 03:41:59;;;;;;;19.83;17.95;;;20.70;99.90;;;;;;2087789;28;20025;-69
2021/09/11 03:43:00;;;;;;;21.23;19.20;;;20.70;99.90;;;;;;2081062;28;20021;-69
2021/09/11 03:44:01;;;;;;;21.05;19.13;;;20.70;99.90;;;;;;2079544;28;20841;-69
2021/09/11 03:45:03;;;;;;;21.38;19.23;;;20.70;99.90;;;;;;2079391;28;20028;-69
2021/09/11 03:46:03;;;;;;;21.85;19.90;;;20.70;99.90;;;;;;2082599;28;20025;-69
2021/09/11 03:47:04;;;;;;;20.92;18.88;;;20.70;99.90;;;;;;2087695;28;20025;-69
2021/09/11 03:48:04;;;;;;;21.27;19.20;;;20.70;99.90;;;;;;2083178;28;20025;-69
2021/09/11 03:49:05;;;;;;;21.92;19.63;;;20.70;99.90;;;;;;2084276;28;20079;-69
2021/09/11 03:50:07;;;;;;;23.83;21.30;;;20.70;99.90;;;;;;2079826;28;20049;-69
2021/09/11 03:51:08;;;;;;;23.23;20.85;;;20.70;99.90;;;;;;2079298;28;20018;-69
2021/09/11 03:52:08;;;;;;;22.65;20.23;;;20.60;99.90;;;;;;2079502;28;20025;-69
2021/09/11 03:53:09;;;;;;;22.52;20.23;;;20.70;99.90;;;;;;2079338;28;20092;-69
2021/09/11 03:54:09;;;;;;;22.85;20.60;;;20.70;99.90;;;;;;2082919;28;20021;-70
2021/09/11 03:55:11;;;;;;;23.33;21.13;;;20.70;99.90;;;;;;2086861;28;20621;-70
2021/09/11 03:56:11;;;;;;;23.83;21.08;;;20.60;99.90;;;;;;2079703;28;20382;-69
2021/09/11 03:57:12;;;;;;;24.58;21.98;;;20.60;99.90;;;;;;2079375;28;20049;-70
2021/09/11 03:58:14;;;;;;;22.70;20.40;;;20.60;99.90;;;;;;2079873;28;20497;-70
2021/09/11 03:59:14;;;;;;;22.60;20.40;;;20.60;99.90;;;;;;2079192;28;20053;-70
2021/09/11 04:00:15;;;;;;;23.23;20.83;;;20.60;99.90;;;;;;2079810;28;20026;-70
2021/09/11 04:01:15;;;;;;;23.52;21.42;;;20.60;99.90;;;;;;2079508;28;20029;-70
2021/09/11 04:02:16;;;;;;;23.48;21.13;;;20.60;99.90;;;;;;2079415;28;20421;-70
2021/09/11 04:03:16;;;;;;;22.80;20.60;;;20.60;99.90;;;;;;2079418;28;20093;-69
2021/09/11 04:04:17;;;;;;;23.23;21.08;;;20.60;99.90;;;;;;2079897;28;20026;-69
2021/09/11 04:05:17;;;;;;;24.00;21.67;;;20.60;99.90;;;;;;2079535;28;20096;-69
2021/09/11 04:06:18;;;;;;;22.98;20.77;;;20.60;99.90;;;;;;2079573;28;20497;-70
2021/09/11 04:07:19;;;;;;;23.00;20.63;;;20.60;99.90;;;;;;2079456;28;20029;-70
2021/09/11 04:08:19;;;;;;;23.92;21.52;;;20.60;99.90;;;;;;2079782;28;20466;-69
2021/09/11 04:09:20;;;;;;;24.40;21.90;;;20.60;99.90;;;;;;2081129;28;20021;-69
2021/09/11 04:10:20;;;;;;;27.20;23.30;;;20.60;99.90;;;;;;2083298;28;20386;-69
2021/09/11 04:11:21;;;;;;;23.58;21.48;;;20.60;99.90;;;;;;2079338;28;20105;-70
2021/09/11 04:12:21;;;;;;;24.00;21.52;;;20.60;99.90;;;;;;2079528;28;20041;-70
2021/09/11 04:13:22;;;;;;;24.88;22.27;;;20.60;99.90;;;;;;2079177;28;20068;-69
2021/09/11 04:14:22;;;;;;;22.83;20.65;;;20.60;99.90;;;;;;2079370;28;20033;-70
2021/09/11 04:15:23;;;;;;;21.90;19.98;;;20.60;99.90;;;;;;2079540;28;20083;-70
2021/09/11 04:16:24;;;;;;;22.10;19.90;;;20.60;99.90;;;;;;2080637;28;20017;-70
2021/09/11 04:17:24;;;;;;;24.52;22.15;;;20.60;99.90;;;;;;2079774;28;20029;-70
2021/09/11 04:18:25;;;;;;;25.40;23.00;;;20.60;99.90;;;;;;2079753;28;20028;-70
2021/09/11 04:19:26;;;;;;;24.73;22.33;;;20.60;99.90;;;;;;2079449;28;20029;-70
2021/09/11 04:20:26;;;;;;;25.05;22.55;;;20.60;99.90;;;;;;2079054;28;20029;-70
2021/09/11 04:21:27;;;;;;;24.48;21.98;;;20.60;99.90;;;;;;2078584;28;20116;-70
2021/09/11 04:22:27;;;;;;;24.00;21.63;;;20.60;99.90;;;;;;2079312;28;20025;-70
2021/09/11 04:23:28;;;;;;;25.50;22.80;;;20.60;99.90;;;;;;2081639;28;20029;-70
2021/09/11 04:24:29;;;;;;;25.58;23.17;;;20.60;99.90;;;;;;2086635;28;20078;-70
2021/09/11 04:25:29;;;;;;;24.70;22.30;;;20.60;99.90;;;;;;2079621;28;20021;-70
2021/09/11 04:26:31;;;;;;;26.15;23.08;;;20.60;99.90;;;;;;2079401;28;20021;-70
2021/09/11 04:27:31;;;;;;;25.35;21.95;;;20.60;99.90;;;;;;2079779;28;20083;-70
2021/09/11 04:28:32;;;;;;;24.30;21.90;;;20.60;99.90;;;;;;2079412;28;20045;-70
2021/09/11 04:29:32;;;;;;;23.67;21.15;;;20.60;99.90;;;;;;2079527;28;20112;-70
2021/09/11 04:30:33;;;;;;;23.48;20.92;;;20.60;99.90;;;;;;2078892;28;20025;-70
2021/09/11 04:31:34;;;;;;;24.23;21.65;;;20.60;99.90;;;;;;2079389;28;20032;-70
2021/09/11 04:32:34;;;;;;;24.88;22.13;;;20.60;99.90;;;;;;2079786;28;20060;-70
2021/09/11 04:33:35;;;;;;;29.38;23.35;;;20.60;99.90;;;;;;2080865;28;20028;-70
2021/09/11 04:34:35;;;;;;;26.92;23.40;;;20.60;99.90;;;;;;2084514;28;20057;-70
2021/09/11 04:35:36;;;;;;;25.63;22.90;;;20.60;99.90;;;;;;2089317;28;20033;-70
2021/09/11 04:36:36;;;;;;;24.67;22.33;;;20.60;99.90;;;;;;2088925;28;20082;-70
2021/09/11 04:37:37;;;;;;;24.85;21.52;;;20.60;99.90;;;;;;2086323;28;20040;-70
2021/09/11 04:38:38;;;;;;;24.52;22.25;;;20.60;99.90;;;;;;2081221;28;20052;-70
2021/09/11 04:39:38;;;;;;;25.48;22.15;;;20.60;99.90;;;;;;2081225;28;20056;-70
2021/09/11 04:40:39;;;;;;;25.88;23.27;;;20.60;99.90;;;;;;2085215;28;20644;-70
2021/09/11 04:41:39;;;;;;;28.65;24.58;;;20.60;99.90;;;;;;2080873;28;20030;-69
2021/09/11 04:42:40;;;;;;;25.52;22.92;;;20.60;99.90;;;;;;2080520;28;20022;-69
2021/09/11 04:43:40;;;;;;;25.58;22.88;;;20.60;99.90;;;;;;2081355;28;20075;-69
2021/09/11 04:44:41;;;;;;;26.30;23.67;;;20.60;99.90;;;;;;2080950;28;20049;-70
2021/09/11 04:45:44;;;;;;;27.38;24.65;;;20.60;99.90;;;;;;2081019;28;20152;-70
2021/09/11 04:46:44;;;;;;;29.00;25.88;;;20.60;99.90;;;;;;2080979;28;20105;-70
2021/09/11 04:47:45;;;;;;;28.52;25.58;;;20.50;99.90;;;;;;2080676;28;20029;-70
2021/09/11 04:48:45;;;;;;;32.80;27.42;;;20.50;99.90;;;;;;2080018;28;20022;-70
2021/09/11 04:49:46;;;;;;;30.08;26.95;;;20.50;99.90;;;;;;2080800;28;20059;-70
2021/09/11 04:50:46;;;;;;;32.80;27.70;;;20.50;99.90;;;;;;2080842;28;20393;-70
2021/09/11 04:51:47;;;;;;;30.38;27.35;;;20.50;99.90;;;;;;2084316;28;20033;-70
2021/09/11 04:52:47;;;;;;;31.27;28.02;;;20.50;99.90;;;;;;2081787;28;20115;-70
2021/09/11 04:53:48;;;;;;;29.92;27.02;;;20.50;99.90;;;;;;2081242;28;20466;-70
2021/09/11 04:54:49;;;;;;;30.63;27.35;;;20.50;99.90;;;;;;2088832;28;20025;-70
2021/09/11 04:55:50;;;;;;;30.75;27.15;;;20.50;99.90;;;;;;2084100;28;20049;-70
2021/09/11 04:56:50;;;;;;;30.92;27.83;;;20.50;99.90;;;;;;2080821;28;20033;-70
2021/09/11 04:57:51;;;;;;;30.30;27.35;;;20.40;99.90;;;;;;2080901;28;20033;-70
2021/09/11 04:58:51;;;;;;;29.63;25.67;;;20.40;99.90;;;;;;2080887;28;20048;-70
2021/09/11 04:59:52;;;;;;;26.83;24.08;;;20.40;99.90;;;;;;2080732;28;20036;-70
2021/09/11 05:00:52;;;;;;;27.40;24.65;;;20.40;99.90;;;;;;2081147;28;20065;-70
2021/09/11 05:01:53;;;;;;;27.15;24.42;;;20.40;99.90;;;;;;2080699;28;20064;-70
2021/09/11 05:02:57;;;;;;;25.88;23.27;;;20.40;99.90;;;;;;2084282;28;20381;-70
2021/09/11 05:03:58;;;;;;;27.77;24.77;;;20.40;99.90;;;;;;2091500;28;20060;-70
2021/09/11 05:04:58;;;;;;;25.80;23.30;;;20.40;99.90;;;;;;2096468;28;20028;-70
2021/09/11 05:06:00;;;;;;;25.58;23.20;;;20.30;99.90;;;;;;2085512;28;20027;-70
2021/09/11 05:07:01;;;;;;;25.85;23.15;;;20.30;99.90;;;;;;2085551;28;20026;-70
2021/09/11 05:08:01;;;;;;;25.77;23.20;;;20.30;99.90;;;;;;2080550;28;20104;-70
2021/09/11 05:09:02;;;;;;;25.10;22.67;;;20.30;99.90;;;;;;2080997;28;20025;-70
2021/09/11 05:10:03;;;;;;;25.75;22.38;;;20.30;99.90;;;;;;2080834;28;20029;-70
2021/09/11 05:11:04;;;;;;;26.92;22.92;;;20.30;99.90;;;;;;2080800;28;20400;-70
2021/09/11 05:12:06;;;;;;;23.10;20.83;;;20.30;99.90;;;;;;2080524;28;20025;-70